• Join FlightAware (Why Join?)
  • Login
  • US Flag 
09:00PM EDT


 

Airport Tracker/Info


-or-


 

Live Flight TrackerFlight Track Log ✈ JZA7828 ✈ 25-Sep-2013 ✈ CYTS - CYYZ

Flight Track Log - Related Links

Times and Time Zones

All times are in EDT time to prevent confusion due to time zone crossing. See the JZA7828 flight status page for this flight to view local times or setup timezone preferences in your user account.

Time Position Orientation Groundspeed Altitude Reporting Facility
EDT Latitude Longitude Course Direction KTS MPH feet Rate Location/Type
12:12PM 48.1761 -81.2237 167° South  Level Estimated
12:13PM 48.1104 -81.1985 170° South  Level Estimated
12:14PM 48.0435 -81.1823 171° South  Level FlightAware Approximate
12:14PM 48.2000 -81.2500 170° South 190 219 8,200  Level Toronto Center
12:15PM 47.9767 -81.1661 171° South  Level FlightAware Approximate
12:15PM 48.1500 -81.2333 167° South 190 219 9,000  Level Toronto Center
12:16PM 47.9098 -81.1500 171° South  Level FlightAware Approximate
12:16PM 48.0833 -81.2333 180° South 200 230 9,700  Level Toronto Center
12:17PM 47.8429 -81.1339 171° South  Level FlightAware Approximate
12:17PM 48.0333 -81.2000 156° South 210 242 10,500  Level Toronto Center
12:18PM 47.7760 -81.1178 171° South  Level FlightAware Approximate
12:18PM 47.9833 -81.2000 180° South 210 242 11,300  Level Toronto Center
12:19PM 47.7104 -81.0922 169° South  Level Estimated
12:19PM 47.9167 -81.1667 161° South 210 242 12,100  Level Toronto Center
12:20PM 47.6932 -81.0875 170° South  Level FlightAware Approximate
12:20PM 47.8667 -81.1500 167° South 200 230 12,900  Level Toronto Center
12:21PM 47.8000 -81.1500 180° South 200 230 13,600 600 Climbing Toronto Center
12:22PM 47.7500 -81.1167 156° South 210 242 14,200 600 Climbing Toronto Center
12:23PM 47.7000 -81.1167 180° South 210 242 14,800 600 Climbing Toronto Center
12:24PM 47.6333 -81.0833 161° South 210 242 15,500 660 Climbing Toronto Center
12:25PM 47.5833 -81.0667 167° South 210 242 16,200 600 Climbing Toronto Center
12:26PM 47.5167 -81.0667 180° South 210 242 16,800 360 Climbing Toronto Center
12:27PM 47.4667 -81.0333 156° South 210 242 17,000 60 Climbing Toronto Center
12:28PM 47.3833 -81.0167 172° South 240 276 17,000  Level Toronto Center
12:29PM 47.3167 -81.0000 170° South 250 288 17,000  Level Toronto Center
12:30PM 47.2500 -80.9833 170° South 250 288 17,000  Level Toronto Center
12:31PM 47.1833 -80.9500 161° South 250 288 17,000  Level Toronto Center
12:32PM 47.1167 -80.9333 170° South 250 288 17,000  Level Toronto Center
12:33PM 47.0500 -80.9333 180° South 250 288 17,000  Level Toronto Center
12:34PM 47.0000 -80.9000 156° South 250 288 17,000  Level Toronto Center
12:35PM 46.9333 -80.8833 170° South 250 288 17,000  Level Toronto Center
12:36PM 46.8667 -80.8667 170° South 250 288 17,000  Level Toronto Center
12:37PM 46.7833 -80.8500 172° South 250 288 17,000  Level Toronto Center
12:38PM 46.7167 -80.8167 161° South 250 288 17,000  Level Toronto Center
12:39PM 46.6667 -80.8000 167° South 250 288 17,000  Level Toronto Center
12:40PM 46.5833 -80.8000 180° South 250 288 17,000  Level Toronto Center
12:41PM 46.5167 -80.7667 161° South 250 288 17,000  Level Toronto Center
12:42PM 46.4500 -80.7500 170° South 250 288 17,000  Level Toronto Center
12:43PM 46.3833 -80.7167 161° South 250 288 17,000  Level Toronto Center
12:44PM 46.3167 -80.7167 180° South 250 288 17,000  Level Toronto Center
12:45PM 46.2500 -80.7000 170° South 250 288 17,000  Level Toronto Center
12:46PM 46.1667 -80.6667 165° South 250 288 17,000  Level Toronto Center
12:47PM 46.1000 -80.6500 170° South 250 288 17,000  Level Toronto Center
12:48PM 46.0333 -80.6333 170° South 260 299 17,000  Level Toronto Center
12:49PM 45.9667 -80.6167 170° South 260 299 17,000  Level Toronto Center
12:50PM 45.9000 -80.5833 161° South 250 288 17,000  Level Toronto Center
12:51PM 45.8167 -80.5667 172° South 250 288 17,000  Level Toronto Center
12:52PM 45.7500 -80.5667 180° South 260 299 17,000  Level Toronto Center
12:53PM 45.6833 -80.5333 161° South 260 299 17,000  Level Toronto Center
12:54PM 45.6167 -80.5167 170° South 260 299 17,000  Level Toronto Center
12:55PM 45.5500 -80.4833 161° South 260 299 17,000  Level Toronto Center
12:56PM 45.4667 -80.4833 180° South 250 288 17,000  Level Toronto Center
12:57PM 45.4000 -80.4667 170° South 250 288 17,000  Level Toronto Center
12:58PM 45.3333 -80.4333 161° South 260 299 17,000  Level Toronto Center
12:59PM 45.2667 -80.4167 170° South 260 299 17,000  Level Toronto Center
01:00PM 45.2000 -80.4167 180° South 250 288 17,000  Level Toronto Center
01:01PM 45.1333 -80.3833 161° South 250 288 17,000  Level Toronto Center
01:02PM 45.0500 -80.3667 172° South 260 299 17,000  Level Toronto Center
01:03PM 44.9833 -80.3333 161° South 250 288 17,000 -60 Level Toronto Center
01:04PM 44.9167 -80.3333 180° South 260 299 16,900 -540 Descending Toronto Center
01:05PM 44.8500 -80.3167 170° South 270 311 16,000 -960 Descending Toronto Center
01:06PM 44.7667 -80.2833 164° South 280 322 15,000 -1,020 Descending Toronto Center
01:07PM 44.6833 -80.2667 172° South 290 334 14,000 -1,020 Descending Toronto Center
01:08PM 44.6000 -80.2333 164° South 290 334 13,000 -1,020 Descending Toronto Center
01:09PM 44.5167 -80.2333 180° South 290 334 12,000 -1,020 Descending Toronto Center
01:10PM 44.4500 -80.2167 170° South 290 334 11,000 -1,020 Descending Toronto Center
01:11PM 44.3667 -80.2000 172° South 290 334 10,000 -1,020 Descending Toronto Center
01:12PM 44.2833 -80.1667 164° South 280 322 9,000 -540 Descending Toronto Center
01:13PM 44.2167 -80.1500 170° South 270 311 9,000  Level Toronto Center
01:14PM 44.1500 -80.1500 180° South 250 288 9,000  Level Toronto Center
01:15PM 44.1000 -80.1000 144° Southeast 240 276 9,000  Level Toronto Center
01:16PM 44.0333 -80.0333 144° Southeast 240 276 9,000  Level Toronto Center
01:17PM 43.9833 -79.9500 130° Southeast 240 276 9,000 -300 Level Toronto Center
01:18PM 43.9333 -79.9167 154° Southeast 250 288 8,400 -540 Descending Toronto Center
01:19PM 43.8667 -79.8333 138° Southeast 260 299 8,000 -240 Descending Toronto Center
01:20PM 43.8167 -79.8000 154° Southeast 250 288 8,000 -240 Level Toronto Center
01:21PM 43.7667 -79.7333 136° Southeast 240 276 7,600 -1,200 Descending Toronto Center
01:22PM 43.7000 -79.7500 190° South 250 288 5,700 -2,040 Descending Toronto Center
01:23PM 43.6667 -79.8167 235° Southwest 240 276 3,600 -1,380 Descending Toronto Center
01:24PM 43.6167 -79.8833 224° Southwest 220 253 3,000 -300 Descending Toronto Center
01:25PM 43.5667 -79.8833 180° South 200 230 3,000  Level Toronto Center
01:26PM 43.5500 -79.8167 109° East 190 219 3,000 -60 Level Toronto Center
01:27PM 43.5833 -79.7667 47° Northeast 170 196 2,900 -540 Descending Toronto Center
01:28PM 43.6167 -79.7333 36° Northeast 170 196 2,000 -840 Descending Toronto Center
01:29PM 43.6333 -79.6833 65° Northeast 150 173 1,300 -360 Descending Toronto Center
01:32PM 43.6833 -79.6167 44° Northeast 30 35 600 -240 Descending Toronto Center